Time;durP1;ratioP1;P1;durP2;ratioP2;P2;SDS_P1;SDS_P2;PMS_P1;PMS_P2;Temp;Humidity;BMP_temperature;BMP_pressure;BME280_temperature;BME280_humidity;BME280_pressure;Samples;Min_cycle;Max_cycle;Signal;HPM_P1;HPM_P2
2022/01/18 00:00:48;;;;;;;30.42;11.27;;;-0.70;99.90;;;;;;4949187;28;20269;-81
2022/01/18 00:03:15;;;;;;;21.85;10.18;;;-0.80;99.90;;;;;;4946310;28;20019;-81
2022/01/18 00:05:43;;;;;;;17.65;9.25;;;-1.80;99.90;;;;;;4965200;28;20027;-81
2022/01/18 00:08:09;;;;;;;21.60;9.00;;;-1.40;99.90;;;;;;4947676;28;20027;-80
2022/01/18 00:10:35;;;;;;;23.23;9.57;;;-0.60;99.90;;;;;;4964070;28;20101;-81
2022/01/18 00:15:38;;;;;;;20.90;8.88;;;-1.00;99.90;;;;;;4964851;28;20055;-81
2022/01/18 00:18:08;;;;;;;18.27;7.22;;;-2.00;99.90;;;;;;4946360;28;20050;-81
2022/01/18 00:21:13;;;;;;;19.80;8.05;;;-1.90;99.90;;;;;;4963939;28;20711;-81
2022/01/18 00:23:40;;;;;;;18.27;8.30;;;-1.10;99.90;;;;;;4963310;28;20027;-81
2022/01/18 00:26:08;;;;;;;15.07;7.32;;;-2.20;99.90;;;;;;4945743;28;20514;-81
2022/01/18 00:28:34;;;;;;;17.85;8.02;;;-1.10;99.90;;;;;;4964633;28;20148;-81
2022/01/18 00:36:59;;;;;;;19.73;8.23;;;-1.80;99.90;;;;;;4966936;28;20142;-81
2022/01/18 00:38:56;;;;;;;15.85;7.10;;;-2.50;99.90;;;;;;4962639;28;20035;-80
2022/01/18 00:41:25;;;;;;;11.02;6.47;;;-2.60;99.90;;;;;;4966838;28;20035;-80
2022/01/18 00:43:51;;;;;;;16.92;8.98;;;-2.70;99.90;;;;;;4949647;28;20090;-81
2022/01/18 00:46:17;;;;;;;18.75;9.05;;;-1.90;99.90;;;;;;4966759;28;20061;-81
2022/01/18 00:48:43;;;;;;;17.50;8.15;;;-1.90;99.90;;;;;;4949759;28;20058;-80
2022/01/18 00:51:13;;;;;;;17.40;8.10;;;-2.40;99.90;;;;;;4966375;28;20042;-80
2022/01/18 00:53:40;;;;;;;15.70;6.65;;;-1.00;99.90;;;;;;4948224;28;20417;-80
2022/01/18 00:58:34;;;;;;;18.58;8.23;;;-2.50;99.90;;;;;;4965293;28;20450;-82
2022/01/18 01:00:59;;;;;;;20.55;8.02;;;-1.00;99.90;;;;;;4947694;28;20119;-80
2022/01/18 01:03:25;;;;;;;17.45;8.38;;;-2.10;99.90;;;;;;4947644;28;20024;-80
2022/01/18 01:05:51;;;;;;;19.63;10.00;;;-2.10;99.90;;;;;;4947712;28;20435;-80
2022/01/18 01:08:17;;;;;;;15.60;6.90;;;-2.30;99.90;;;;;;4946346;28;20392;-80
2022/01/18 01:10:43;;;;;;;16.30;7.35;;;-1.50;99.90;;;;;;4963653;28;20214;-80
2022/01/18 01:13:10;;;;;;;16.48;8.25;;;-1.00;99.90;;;;;;4964631;28;20023;-80
2022/01/18 01:15:53;;;;;;;16.67;8.07;;;-1.60;99.90;;;;;;4941727;28;20270;-81
2022/01/18 01:18:38;;;;;;;13.95;7.70;;;-1.80;99.90;;;;;;4946406;28;20023;-80
2022/01/18 01:32:26;;;;;;;21.83;9.20;;;-1.90;99.90;;;;;;4963949;28;20113;-80
2022/01/18 01:45:31;;;;;;;16.50;6.38;;;-2.20;99.90;;;;;;4970539;28;20121;-79
2022/01/18 01:48:00;;;;;;;15.75;7.68;;;-1.60;99.90;;;;;;4953085;28;20392;-80
2022/01/18 01:50:39;;;;;;;17.67;8.60;;;-2.90;99.90;;;;;;4952917;28;20432;-80
2022/01/18 01:53:08;;;;;;;12.60;6.55;;;-2.70;99.90;;;;;;4952853;28;20041;-80
2022/01/18 01:55:34;;;;;;;16.70;7.72;;;-1.70;99.90;;;;;;4953164;28;20065;-80
2022/01/18 01:57:59;;;;;;;20.48;8.90;;;-1.70;99.90;;;;;;4968952;28;20031;-80
2022/01/18 02:00:25;;;;;;;19.77;8.48;;;-1.90;99.90;;;;;;4969560;28;20034;-80
2022/01/18 02:02:51;;;;;;;23.02;9.10;;;-2.90;99.90;;;;;;4969429;28;20472;-80
2022/01/18 02:05:17;;;;;;;20.65;8.52;;;-2.80;99.90;;;;;;4970826;28;20155;-82
2022/01/18 02:07:44;;;;;;;25.15;10.02;;;-2.80;99.90;;;;;;4952542;28;20027;-81
2022/01/18 02:10:12;;;;;;;21.10;9.77;;;-1.60;99.90;;;;;;4952883;28;20050;-81
2022/01/18 02:12:38;;;;;;;27.67;9.82;;;-1.80;99.90;;;;;;4953377;28;20030;-80
2022/01/18 02:15:16;;;;;;;21.40;8.15;;;-1.80;99.90;;;;;;4953663;28;20037;-80
2022/01/18 02:23:20;;;;;;;17.23;7.72;;;-1.60;99.90;;;;;;4971412;28;20086;-80
2022/01/18 02:25:46;;;;;;;20.90;7.82;;;-2.50;99.90;;;;;;4952668;28;20023;-81
2022/01/18 02:28:14;;;;;;;18.00;8.35;;;-1.40;99.90;;;;;;4952941;28;20023;-80
2022/01/18 02:30:39;;;;;;;19.95;8.63;;;-2.00;99.90;;;;;;4969950;28;20035;-80
2022/01/18 02:33:05;;;;;;;17.30;8.20;;;-2.10;99.90;;;;;;4953664;28;20097;-81
2022/01/18 02:35:32;;;;;;;26.73;9.52;;;-1.40;99.90;;;;;;4954640;28;20061;-80
2022/01/18 02:37:58;;;;;;;21.75;8.60;;;-3.10;99.90;;;;;;4955670;28;20037;-80
2022/01/18 02:40:24;;;;;;;14.60;8.88;;;-1.40;99.90;;;;;;4972708;28;20031;-81
2022/01/18 02:43:00;;;;;;;18.55;9.20;;;-1.90;99.90;;;;;;4955630;28;20459;-80
2022/01/18 02:45:27;;;;;;;20.45;9.23;;;-2.40;99.90;;;;;;4971995;28;20050;-80
2022/01/18 02:47:56;;;;;;;22.60;10.40;;;-3.10;99.90;;;;;;4972232;28;20554;-81
2022/01/18 02:50:21;;;;;;;19.48;9.02;;;-1.60;99.90;;;;;;4955017;28;20034;-80
2022/01/18 02:52:47;;;;;;;21.02;9.75;;;-1.50;99.90;;;;;;4955673;28;20045;-81
2022/01/18 02:55:13;;;;;;;17.52;9.98;;;-1.50;99.90;;;;;;4972637;28;20058;-80
2022/01/18 02:57:54;;;;;;;19.55;10.27;;;-1.20;99.90;;;;;;4955074;28;20081;-80
2022/01/18 03:00:30;;;;;;;21.73;10.55;;;-1.70;99.90;;;;;;4955227;28;20027;-81
2022/01/18 03:03:17;;;;;;;19.63;9.82;;;-1.30;99.90;;;;;;4954758;28;20039;-80
2022/01/18 03:05:45;;;;;;;20.65;9.07;;;-1.30;99.90;;;;;;4955210;28;20041;-80
2022/01/18 03:08:12;;;;;;;30.08;11.32;;;-1.20;99.90;;;;;;4954931;28;20023;-80
2022/01/18 03:10:41;;;;;;;27.63;10.35;;;-0.70;99.90;;;;;;4955119;28;20065;-81
2022/01/18 03:13:07;;;;;;;23.48;9.82;;;-0.10;99.90;;;;;;4955046;28;20019;-81
2022/01/18 03:15:35;;;;;;;23.38;11.15;;;-1.00;99.90;;;;;;4955789;28;20384;-80
2022/01/18 03:18:06;;;;;;;20.50;9.38;;;-1.40;99.90;;;;;;4955536;28;20029;-81
2022/01/18 03:20:33;;;;;;;19.10;9.77;;;-1.80;99.90;;;;;;4955525;28;20121;-80
2022/01/18 03:22:59;;;;;;;21.80;9.73;;;-0.70;99.90;;;;;;4972431;28;20026;-81
2022/01/18 03:25:28;;;;;;;21.35;11.43;;;-1.20;99.90;;;;;;4972641;28;20030;-80
2022/01/18 03:28:05;;;;;;;23.30;10.48;;;-1.70;99.90;;;;;;4972861;28;20363;-80
2022/01/18 03:30:31;;;;;;;26.40;10.02;;;-1.40;99.90;;;;;;4955234;28;20101;-80
2022/01/18 03:32:57;;;;;;;27.05;10.77;;;-0.50;99.90;;;;;;4955311;28;20051;-81
2022/01/18 03:35:23;;;;;;;24.70;10.02;;;-1.10;99.90;;;;;;4972377;28;20081;-80
2022/01/18 03:37:50;;;;;;;28.45;11.32;;;-1.30;99.90;;;;;;4955300;28;20019;-80
2022/01/18 03:40:16;;;;;;;25.95;10.43;;;-1.10;99.90;;;;;;4972783;28;20049;-79
2022/01/18 03:42:43;;;;;;;23.52;9.05;;;-0.30;99.90;;;;;;4972873;28;20031;-80
2022/01/18 03:45:13;;;;;;;26.63;10.95;;;-1.20;99.90;;;;;;4955347;28;20054;-81
2022/01/18 03:47:39;;;;;;;28.25;11.40;;;-1.10;99.90;;;;;;4955493;28;20399;-80
2022/01/18 03:50:06;;;;;;;21.90;9.85;;;-1.10;99.90;;;;;;4953826;28;20182;-81
2022/01/18 03:52:32;;;;;;;25.35;9.55;;;-1.10;99.90;;;;;;4954664;28;20374;-80
2022/01/18 03:54:57;;;;;;;28.75;10.45;;;-1.10;99.90;;;;;;4955038;28;20383;-79
2022/01/18 03:57:23;;;;;;;31.23;11.63;;;-1.00;99.90;;;;;;4954776;28;20030;-80
2022/01/18 03:59:49;;;;;;;40.58;12.90;;;0.20;99.90;;;;;;4971309;28;20031;-80
2022/01/18 04:02:15;;;;;;;34.50;12.10;;;-0.70;99.90;;;;;;4971658;28;20151;-80
2022/01/18 04:04:42;;;;;;;36.92;10.40;;;0.60;99.90;;;;;;4954770;28;20554;-80
2022/01/18 04:07:08;;;;;;;37.17;12.75;;;-0.60;99.90;;;;;;4957770;28;20051;-79
2022/01/18 04:09:34;;;;;;;45.22;12.40;;;-0.50;99.90;;;;;;4975211;28;20066;-80
2022/01/18 04:12:01;;;;;;;28.83;12.20;;;1.00;99.90;;;;;;4957942;28;20447;-80
2022/01/18 04:14:27;;;;;;;39.53;12.02;;;-0.40;99.90;;;;;;4957723;28;20030;-80
2022/01/18 04:27:39;;;;;;;37.60;13.15;;;1.10;99.90;;;;;;4965058;28;20376;-80
2022/01/18 04:30:06;;;;;;;34.03;12.30;;;-0.40;99.90;;;;;;4974699;28;20183;-80
2022/01/18 04:32:32;;;;;;;35.22;13.05;;;-0.30;99.90;;;;;;4974142;28;20500;-80
2022/01/18 04:34:57;;;;;;;58.97;14.50;;;-0.30;99.90;;;;;;4974617;28;20030;-80
2022/01/18 04:37:23;;;;;;;26.52;12.38;;;-0.40;99.90;;;;;;4974539;28;20100;-79
2022/01/18 04:39:49;;;;;;;35.88;14.45;;;1.10;99.90;;;;;;4956864;28;20044;-80
2022/01/18 04:42:30;;;;;;;38.53;13.48;;;0.90;99.90;;;;;;4957308;28;20121;-80
2022/01/18 04:50:24;;;;;;;43.97;13.77;;;-0.60;99.90;;;;;;4974776;28;20042;-80
2022/01/18 04:52:50;;;;;;;37.17;11.73;;;-0.70;99.90;;;;;;4974480;28;20031;-80
2022/01/18 04:55:18;;;;;;;44.95;14.60;;;-0.70;99.90;;;;;;4974663;28;20479;-80
2022/01/18 04:57:52;;;;;;;33.60;12.13;;;-0.60;99.90;;;;;;4974718;28;20019;-80
2022/01/18 05:00:19;;;;;;;30.27;11.45;;;0.60;99.90;;;;;;4956948;28;20027;-80
2022/01/18 05:02:47;;;;;;;51.30;14.23;;;-0.70;99.90;;;;;;4957213;28;20019;-80
2022/01/18 05:05:22;;;;;;;33.35;11.82;;;-0.70;99.90;;;;;;4957069;28;20046;-80
2022/01/18 05:07:48;;;;;;;31.48;12.98;;;-0.60;99.90;;;;;;4956769;28;20051;-79
2022/01/18 05:10:19;;;;;;;26.42;11.25;;;-0.50;99.90;;;;;;4974511;28;20066;-80
2022/01/18 05:12:47;;;;;;;30.70;11.98;;;-1.40;99.90;;;;;;4956484;28;20099;-80
2022/01/18 05:20:55;;;;;;;34.05;10.70;;;-1.40;99.90;;;;;;4974270;28;20565;-80
2022/01/18 05:23:21;;;;;;;30.23;11.40;;;-1.70;99.90;;;;;;4956319;28;20031;-80
2022/01/18 05:25:50;;;;;;;30.77;11.23;;;-1.40;99.90;;;;;;4956456;28;20030;-80
2022/01/18 05:28:16;;;;;;;22.60;11.45;;;-1.80;99.90;;;;;;4956722;28;20526;-80
2022/01/18 05:30:42;;;;;;;30.55;12.07;;;-1.60;99.90;;;;;;4973856;28;20181;-81
2022/01/18 05:33:09;;;;;;;23.88;11.55;;;-1.20;99.90;;;;;;4973390;28;20542;-80
2022/01/18 05:35:34;;;;;;;28.08;11.75;;;-1.50;99.90;;;;;;4956150;28;20503;-80
2022/01/18 05:38:01;;;;;;;26.08;11.38;;;-0.50;99.90;;;;;;4956243;28;20031;-80
2022/01/18 05:40:27;;;;;;;45.67;12.27;;;-1.50;99.90;;;;;;4956000;28;20023;-80
2022/01/18 05:42:53;;;;;;;29.02;11.65;;;-1.60;99.90;;;;;;4956102;28;20355;-80
2022/01/18 05:45:20;;;;;;;31.70;9.88;;;-1.60;99.90;;;;;;4974074;28;20205;-80
2022/01/18 05:47:45;;;;;;;24.20;11.32;;;-1.50;99.90;;;;;;4956679;28;20023;-80
2022/01/18 05:50:13;;;;;;;37.95;9.95;;;-1.40;99.90;;;;;;4956804;28;20037;-80
2022/01/18 05:52:39;;;;;;;39.35;12.63;;;-1.00;99.90;;;;;;4956612;28;20070;-80
2022/01/18 05:55:07;;;;;;;35.95;12.52;;;-1.50;99.90;;;;;;4973862;28;20027;-81
2022/01/18 05:57:33;;;;;;;39.97;11.93;;;-1.70;99.90;;;;;;4955825;28;20019;-80
2022/01/18 06:00:04;;;;;;;50.13;13.25;;;-1.70;99.90;;;;;;4956077;28;20019;-80
2022/01/18 06:07:40;;;;;;;34.92;11.57;;;-0.90;99.90;;;;;;4973451;28;20066;-79
2022/01/18 06:10:05;;;;;;;23.75;9.38;;;-1.30;99.90;;;;;;4973106;28;20030;-80
2022/01/18 06:12:32;;;;;;;39.95;10.90;;;-2.00;99.90;;;;;;4973117;28;20125;-80
2022/01/18 06:14:58;;;;;;;34.22;11.43;;;-0.10;99.90;;;;;;4955625;28;20458;-80
2022/01/18 06:17:24;;;;;;;26.35;10.38;;;-1.10;99.90;;;;;;4972651;28;20081;-80
2022/01/18 06:19:50;;;;;;;22.75;9.57;;;-1.10;99.90;;;;;;4955519;28;20035;-80
2022/01/18 06:22:15;;;;;;;26.05;9.60;;;-2.20;99.90;;;;;;4972650;28;20026;-80
2022/01/18 06:24:41;;;;;;;38.47;9.90;;;-1.10;99.90;;;;;;4955423;28;20598;-80
2022/01/18 06:27:11;;;;;;;21.27;9.82;;;-2.00;99.90;;;;;;4973446;28;20089;-79
2022/01/18 06:29:37;;;;;;;28.35;10.15;;;-2.40;99.90;;;;;;4981887;28;20098;-79
2022/01/18 06:32:06;;;;;;;24.38;9.23;;;-2.00;99.90;;;;;;4965139;28;20050;-80
2022/01/18 06:34:32;;;;;;;34.25;8.88;;;-2.70;99.90;;;;;;4979875;28;20034;-80
2022/01/18 06:36:58;;;;;;;23.23;10.07;;;-1.50;99.90;;;;;;4966037;28;20023;-80
2022/01/18 06:39:24;;;;;;;24.88;9.15;;;-2.20;99.90;;;;;;4956358;28;20034;-80
2022/01/18 06:41:49;;;;;;;23.40;9.30;;;-2.00;99.90;;;;;;4956199;28;20034;-80
2022/01/18 06:44:15;;;;;;;36.45;9.90;;;-2.70;99.90;;;;;;4974716;28;20054;-79
2022/01/18 06:46:41;;;;;;;19.33;8.98;;;-2.00;99.90;;;;;;4954576;28;20186;-78
2022/01/18 06:49:07;;;;;;;21.15;9.40;;;-1.30;99.90;;;;;;4955070;28;20061;-80
2022/01/18 06:51:34;;;;;;;25.00;8.20;;;-1.50;99.90;;;;;;4955729;28;20452;-83
2022/01/18 06:54:00;;;;;;;17.23;8.02;;;-3.10;99.90;;;;;;4972217;28;20088;-82
2022/01/18 06:56:26;;;;;;;20.02;9.38;;;-2.20;99.90;;;;;;4954245;28;20066;-84
2022/01/18 06:58:53;;;;;;;27.08;10.30;;;-3.20;99.90;;;;;;4953468;28;20432;-80
2022/01/18 07:01:20;;;;;;;28.33;10.00;;;-1.80;99.90;;;;;;4970194;28;20195;-81
2022/01/18 07:03:48;;;;;;;23.13;8.43;;;-3.20;99.90;;;;;;4953199;28;20023;-80
2022/01/18 07:06:15;;;;;;;24.83;8.18;;;-2.70;99.90;;;;;;4953121;28;20118;-80
2022/01/18 07:08:40;;;;;;;27.67;8.70;;;-1.90;99.90;;;;;;4953143;28;20023;-80
2022/01/18 07:11:07;;;;;;;20.75;7.55;;;-2.90;99.90;;;;;;4952657;28;20054;-80
2022/01/18 07:13:33;;;;;;;26.83;9.38;;;-2.70;99.90;;;;;;4969775;28;20030;-78
2022/01/18 07:15:59;;;;;;;22.75;9.05;;;-2.80;99.90;;;;;;4952437;28;20027;-79
2022/01/18 07:18:25;;;;;;;16.65;8.45;;;-1.50;99.90;;;;;;4970684;28;20550;-79
2022/01/18 07:20:51;;;;;;;16.98;7.68;;;-2.10;99.90;;;;;;4952479;28;20391;-79
2022/01/18 07:23:17;;;;;;;18.33;7.65;;;-3.20;99.90;;;;;;4970342;28;20027;-79
2022/01/18 07:25:46;;;;;;;14.95;6.93;;;-2.60;99.90;;;;;;4970462;28;20027;-78
2022/01/18 07:28:14;;;;;;;20.37;9.03;;;-2.20;99.90;;;;;;4970408;28;20023;-79
2022/01/18 07:30:40;;;;;;;19.30;8.50;;;-2.30;99.90;;;;;;4952910;28;20039;-78
2022/01/18 07:33:06;;;;;;;25.35;9.70;;;-2.50;99.90;;;;;;4970334;28;20419;-79
2022/01/18 07:35:34;;;;;;;25.63;9.13;;;-3.50;99.90;;;;;;4970328;28;20038;-78
2022/01/18 07:38:02;;;;;;;19.20;8.60;;;-2.10;99.90;;;;;;4970678;28;20030;-78
2022/01/18 07:40:29;;;;;;;18.58;7.53;;;-1.90;99.90;;;;;;4974299;28;20062;-79
2022/01/18 07:42:56;;;;;;;21.55;8.77;;;-2.10;99.90;;;;;;4973986;28;20031;-78
2022/01/18 07:45:22;;;;;;;22.95;7.25;;;-1.90;99.90;;;;;;4956647;28;20026;-79
2022/01/18 07:47:49;;;;;;;17.42;7.72;;;-3.50;99.90;;;;;;4975752;28;20390;-79
2022/01/18 07:50:15;;;;;;;20.00;8.68;;;-2.20;99.90;;;;;;4975746;28;20043;-79
2022/01/18 07:52:41;;;;;;;18.70;9.30;;;-2.70;99.90;;;;;;4958732;28;20078;-78
2022/01/18 07:55:07;;;;;;;16.48;7.95;;;-2.20;99.90;;;;;;4976121;28;20483;-78
2022/01/18 07:57:33;;;;;;;17.50;9.20;;;-3.10;99.90;;;;;;4975648;28;20498;-79
2022/01/18 07:59:59;;;;;;;22.05;9.48;;;-1.80;99.90;;;;;;4958035;28;20027;-79
2022/01/18 08:02:25;;;;;;;24.02;10.15;;;-1.80;99.90;;;;;;4957661;28;20109;-79
2022/01/18 08:04:51;;;;;;;22.00;9.95;;;-1.90;99.90;;;;;;4975899;28;20031;-79
2022/01/18 08:07:17;;;;;;;22.02;9.57;;;-1.70;99.90;;;;;;4975578;28;20103;-78
2022/01/18 08:09:42;;;;;;;17.80;8.10;;;-2.10;99.90;;;;;;4975212;28;20602;-78
2022/01/18 08:12:08;;;;;;;25.00;10.18;;;-1.30;99.90;;;;;;4974921;28;20368;-79
2022/01/18 08:14:34;;;;;;;24.05;10.90;;;-2.20;99.90;;;;;;4975049;28;20046;-78
2022/01/18 08:17:04;;;;;;;21.50;9.70;;;-2.10;99.90;;;;;;4957155;28;20069;-78
2022/01/18 08:19:35;;;;;;;21.83;9.25;;;-2.20;99.90;;;;;;4957393;28;20384;-78
2022/01/18 08:22:01;;;;;;;28.15;12.15;;;-1.20;99.90;;;;;;4957217;28;20082;-78
2022/01/18 08:24:28;;;;;;;31.65;11.65;;;-2.00;99.90;;;;;;4974610;28;20034;-78
2022/01/18 08:26:55;;;;;;;25.85;10.85;;;-1.90;99.90;;;;;;4957318;28;20097;-78
2022/01/18 08:29:20;;;;;;;31.63;12.40;;;-1.20;99.90;;;;;;4974837;28;20037;-78
2022/01/18 08:31:47;;;;;;;29.95;11.40;;;-1.60;99.90;;;;;;4953605;29;20424;-78
2022/01/18 08:34:14;;;;;;;24.33;10.30;;;-1.30;99.90;;;;;;4955145;29;20023;-78
2022/01/18 08:36:40;;;;;;;22.77;10.30;;;-0.90;99.90;;;;;;4955084;29;20551;-78
2022/01/18 08:39:08;;;;;;;29.85;10.95;;;-0.80;99.90;;;;;;4955413;29;20027;-79
2022/01/18 08:41:34;;;;;;;27.02;11.38;;;-0.40;99.90;;;;;;4955303;29;20037;-78
2022/01/18 08:43:59;;;;;;;25.70;11.65;;;-0.90;99.90;;;;;;4955095;29;20035;-78
2022/01/18 08:46:25;;;;;;;20.70;10.75;;;-0.80;99.90;;;;;;4955002;29;20027;-78
2022/01/18 08:48:51;;;;;;;24.73;11.27;;;0.20;99.90;;;;;;4954996;29;20299;-78
2022/01/18 08:51:18;;;;;;;21.80;11.23;;;0.20;99.90;;;;;;4954324;28;20473;-78
2022/01/18 08:53:50;;;;;;;24.83;9.55;;;0.60;99.90;;;;;;4953185;29;20031;-78
2022/01/18 08:56:20;;;;;;;26.15;11.07;;;1.00;99.90;;;;;;4954486;29;20500;-78
2022/01/18 08:58:47;;;;;;;25.33;11.13;;;-0.30;99.90;;;;;;4954646;29;20039;-78
2022/01/18 09:01:13;;;;;;;24.05;10.20;;;0.30;99.90;;;;;;4953707;29;20523;-78
2022/01/18 09:03:39;;;;;;;25.30;10.35;;;1.00;99.90;;;;;;4954690;29;20066;-77
2022/01/18 09:06:06;;;;;;;26.55;11.85;;;-0.20;99.90;;;;;;4953293;29;20062;-78
2022/01/18 09:08:33;;;;;;;27.25;12.63;;;1.00;99.90;;;;;;4954545;29;20030;-78
2022/01/18 09:10:59;;;;;;;43.50;15.85;;;0.00;99.90;;;;;;4954133;29;20035;-78
2022/01/18 09:13:24;;;;;;;38.22;15.75;;;0.20;99.90;;;;;;4952944;29;20027;-79
2022/01/18 09:15:52;;;;;;;44.38;19.67;;;0.00;99.90;;;;;;4952284;29;20024;-79
2022/01/18 09:18:18;;;;;;;40.53;17.83;;;1.30;99.90;;;;;;4953404;29;20023;-78
2022/01/18 09:20:44;;;;;;;41.97;19.08;;;1.10;99.90;;;;;;4954464;29;20028;-77
2022/01/18 09:23:10;;;;;;;38.75;15.95;;;0.00;99.90;;;;;;4952835;29;20035;-79
2022/01/18 09:25:36;;;;;;;40.75;18.10;;;0.10;99.90;;;;;;4952354;29;20029;-78
2022/01/18 09:28:03;;;;;;;42.50;17.65;;;0.10;99.90;;;;;;4952262;29;20038;-78
2022/01/18 09:30:30;;;;;;;39.85;16.85;;;0.10;99.90;;;;;;4953997;29;20035;-79
2022/01/18 09:32:58;;;;;;;40.63;15.48;;;1.30;99.90;;;;;;4947723;28;20075;-76
2022/01/18 09:35:24;;;;;;;58.80;21.48;;;0.80;99.90;;;;;;4966735;28;20054;-77
2022/01/18 09:37:50;;;;;;;55.42;18.02;;;0.00;99.90;;;;;;4955273;28;20059;-76
2022/01/18 09:40:19;;;;;;;35.10;12.75;;;0.80;99.90;;;;;;4954606;28;20106;-78
2022/01/18 09:42:47;;;;;;;54.45;18.63;;;0.90;99.90;;;;;;4953599;28;20085;-80
2022/01/18 09:45:17;;;;;;;41.10;13.02;;;0.20;99.90;;;;;;4954052;28;20269;-79
2022/01/18 09:47:46;;;;;;;58.30;13.48;;;0.20;99.90;;;;;;4951588;28;20468;-79
2022/01/18 09:50:14;;;;;;;22.33;10.63;;;1.00;99.90;;;;;;4952144;29;20510;-79
2022/01/18 09:52:40;;;;;;;56.07;15.73;;;0.90;99.90;;;;;;4949967;29;20427;-79
2022/01/18 09:55:07;;;;;;;51.08;12.38;;;1.10;99.90;;;;;;4951088;28;20278;-79
2022/01/18 09:57:37;;;;;;;46.33;10.75;;;0.30;99.90;;;;;;4950832;28;20479;-79
2022/01/18 10:00:04;;;;;;;;;;;0.40;99.90;;;;;;4953527;28;20019;-78
2022/01/18 10:02:30;;;;;;;26.50;7.10;;;0.40;99.90;;;;;;4947917;28;20430;-78
2022/01/18 10:04:58;;;;;;;24.38;8.68;;;0.60;99.90;;;;;;4948342;29;20023;-79
2022/01/18 10:07:32;;;;;;;25.23;8.90;;;0.50;99.90;;;;;;4947004;29;20054;-79
2022/01/18 10:10:05;;;;;;;29.83;10.10;;;1.00;99.90;;;;;;4953231;28;20514;-79
2022/01/18 10:12:31;;;;;;;19.00;8.20;;;0.60;99.90;;;;;;4948580;28;20082;-78
2022/01/18 10:14:59;;;;;;;38.30;8.77;;;0.60;99.90;;;;;;4948203;29;20019;-79
2022/01/18 10:17:37;;;;;;;34.40;9.75;;;0.60;99.90;;;;;;4949677;28;20027;-79
2022/01/18 10:20:19;;;;;;;33.15;9.98;;;0.60;99.90;;;;;;4947606;29;20056;-79
2022/01/18 10:22:49;;;;;;;33.28;8.32;;;0.60;99.90;;;;;;4948126;28;20070;-78
2022/01/18 10:25:17;;;;;;;32.33;8.73;;;0.80;99.90;;;;;;4947271;28;20034;-77
2022/01/18 10:27:47;;;;;;;35.90;9.98;;;0.80;99.90;;;;;;4946919;28;20492;-78
2022/01/18 10:30:21;;;;;;;65.55;16.33;;;1.10;99.90;;;;;;4945962;29;20130;-77
2022/01/18 10:33:21;;;;;;;38.08;10.02;;;1.10;99.90;;;;;;4963107;28;20054;-77
2022/01/18 10:36:07;;;;;;;30.60;9.25;;;0.80;99.90;;;;;;4967772;28;20039;-77
2022/01/18 10:38:33;;;;;;;29.52;8.85;;;0.90;99.90;;;;;;4969272;28;20483;-79
2022/01/18 10:41:30;;;;;;;25.23;8.57;;;1.00;99.90;;;;;;4970905;28;20035;-79
2022/01/18 10:44:16;;;;;;;29.55;7.90;;;0.80;99.90;;;;;;4968297;28;20502;-80
2022/01/18 10:47:02;;;;;;;22.02;8.23;;;1.00;99.90;;;;;;4968336;28;20291;-77
2022/01/18 10:49:40;;;;;;;30.63;8.85;;;1.00;99.90;;;;;;4968949;28;20019;-79
2022/01/18 10:52:10;;;;;;;37.13;8.85;;;0.90;99.90;;;;;;4969295;28;20034;-78
2022/01/18 10:54:42;;;;;;;25.05;9.90;;;0.80;99.90;;;;;;4951238;28;20027;-78
2022/01/18 10:57:11;;;;;;;32.58;9.70;;;1.00;99.90;;;;;;4952081;28;20086;-79
2022/01/18 10:59:38;;;;;;;36.33;10.60;;;1.40;99.90;;;;;;4968728;28;20022;-79
2022/01/18 11:02:12;;;;;;;25.27;10.18;;;1.70;99.90;;;;;;4968413;28;20026;-77
2022/01/18 11:04:43;;;;;;;30.85;10.35;;;1.90;99.90;;;;;;4968915;28;20030;-78
2022/01/18 11:07:09;;;;;;;33.20;10.07;;;1.60;99.90;;;;;;4969712;28;20023;-79
2022/01/18 11:09:35;;;;;;;36.05;12.18;;;1.60;99.90;;;;;;4968741;28;20023;-78
2022/01/18 11:12:02;;;;;;;45.35;14.77;;;1.80;99.90;;;;;;4967665;28;20070;-79
2022/01/18 11:14:29;;;;;;;29.08;10.60;;;2.00;99.90;;;;;;4949712;28;20463;-81
2022/01/18 11:16:57;;;;;;;25.63;11.65;;;2.00;99.90;;;;;;4967277;28;20511;-78
2022/01/18 11:21:52;;;;;;;29.92;11.55;;;1.90;99.90;;;;;;4967518;28;20031;-78
2022/01/18 11:24:19;;;;;;;30.30;11.95;;;1.90;99.90;;;;;;4949309;28;20073;-79
2022/01/18 11:26:46;;;;;;;37.13;10.90;;;2.00;99.90;;;;;;4954145;28;20037;-81
2022/01/18 11:29:16;;;;;;;28.83;9.73;;;1.90;99.90;;;;;;4948611;28;20055;-80
2022/01/18 11:31:44;;;;;;;;;;;2.20;99.90;;;;;;4939671;29;20050;-77
2022/01/18 11:34:13;;;;;;;32.08;10.45;;;2.10;99.90;;;;;;4968610;28;19982;-79
2022/01/18 11:36:48;;;;;;;25.33;8.95;;;1.60;99.90;;;;;;4962053;28;20050;-78
2022/01/18 11:39:17;;;;;;;37.95;10.07;;;1.80;99.90;;;;;;4950628;28;20515;-78
2022/01/18 11:41:43;;;;;;;29.63;10.43;;;1.60;99.90;;;;;;4958307;28;20445;-80
2022/01/18 11:44:17;;;;;;;31.65;11.60;;;1.60;99.90;;;;;;4975988;28;20496;-80
2022/01/18 11:46:52;;;;;;;31.17;11.80;;;1.60;99.90;;;;;;4958741;28;20035;-80
2022/01/18 11:49:28;;;;;;;30.30;10.73;;;1.60;99.90;;;;;;4982857;28;20019;-81
2022/01/18 11:52:07;;;;;;;23.60;10.05;;;1.70;99.90;;;;;;4959904;28;20407;-79
2022/01/18 11:57:21;;;;;;;25.10;9.38;;;2.10;99.90;;;;;;4971678;28;20018;-79
2022/01/18 11:59:48;;;;;;;36.20;12.27;;;2.50;99.90;;;;;;4951283;28;20534;-79
2022/01/18 12:02:34;;;;;;;31.95;12.77;;;2.80;99.90;;;;;;4950738;28;20035;-79
2022/01/18 12:05:07;;;;;;;32.20;11.88;;;2.80;99.90;;;;;;4955256;28;20026;-79
2022/01/18 12:07:33;;;;;;;25.90;10.52;;;2.80;99.90;;;;;;4969942;28;20086;-79
2022/01/18 12:10:17;;;;;;;50.08;19.60;;;2.80;99.90;;;;;;4950898;28;20034;-78
2022/01/18 12:12:48;;;;;;;41.75;14.02;;;2.60;99.90;;;;;;4967162;28;20061;-80
2022/01/18 12:15:19;;;;;;;31.02;12.15;;;2.80;99.90;;;;;;4950024;28;20027;-78
2022/01/18 12:17:51;;;;;;;19.77;9.07;;;2.70;99.90;;;;;;4950732;28;20388;-80
2022/01/18 12:20:35;;;;;;;31.45;13.30;;;3.00;99.90;;;;;;4948526;28;20114;-83
2022/01/18 12:23:11;;;;;;;26.80;9.43;;;2.90;99.90;;;;;;4947775;28;20092;-78
2022/01/18 12:26:47;;;;;;;17.52;7.40;;;2.60;99.90;;;;;;4966280;28;20034;-78
2022/01/18 12:29:19;;;;;;;24.13;10.65;;;2.70;99.90;;;;;;4963474;28;20035;-79
2022/01/18 12:37:24;;;;;;;19.08;8.93;;;2.20;99.90;;;;;;4971194;28;20031;-79
2022/01/18 12:44:20;;;;;;;26.85;9.43;;;2.70;99.90;;;;;;4970599;28;20031;-79
2022/01/18 12:45:05;;;;;;;25.35;8.65;;;2.90;99.90;;;;;;4969994;28;20039;-79
2022/01/18 12:47:31;;;;;;;28.35;10.43;;;3.00;99.90;;;;;;4984555;28;20045;-79
2022/01/18 12:49:57;;;;;;;25.88;9.80;;;2.80;99.90;;;;;;4958335;28;20275;-79
2022/01/18 12:52:23;;;;;;;17.05;8.20;;;3.10;99.90;;;;;;4998085;28;20026;-80
2022/01/18 12:54:49;;;;;;;23.80;9.90;;;3.10;99.90;;;;;;4996347;28;20034;-78
2022/01/18 12:57:16;;;;;;;20.65;8.27;;;3.20;99.90;;;;;;4959159;28;20026;-77
2022/01/18 13:00:03;;;;;;;21.50;8.80;;;2.90;99.90;;;;;;4982016;28;20069;-78
2022/01/18 13:02:30;;;;;;;22.23;10.48;;;3.00;99.90;;;;;;4973749;28;20037;-78
2022/01/18 13:04:57;;;;;;;26.38;10.32;;;3.20;99.90;;;;;;4960925;28;20089;-77
2022/01/18 13:07:23;;;;;;;26.50;10.75;;;3.30;99.90;;;;;;4956373;28;20049;-77
2022/01/18 13:10:00;;;;;;;26.42;8.82;;;3.40;99.90;;;;;;4976445;28;20030;-77
2022/01/18 13:12:30;;;;;;;23.67;11.10;;;3.60;99.90;;;;;;4977157;28;20026;-78
2022/01/18 13:14:57;;;;;;;21.88;9.65;;;3.90;99.90;;;;;;4973475;28;20037;-79
2022/01/18 13:23:49;;;;;;;19.80;9.05;;;5.60;99.90;;;;;;4973088;28;20118;-81
2022/01/18 13:26:15;;;;;;;18.25;7.63;;;6.10;99.90;;;;;;4976326;28;20391;-81
2022/01/18 13:28:41;;;;;;;21.75;8.60;;;6.10;99.90;;;;;;4978287;28;20033;-82
2022/01/18 13:31:17;;;;;;;20.23;8.52;;;5.70;99.90;;;;;;4959007;28;20039;-82
2022/01/18 13:33:56;;;;;;;15.77;6.47;;;6.20;99.90;;;;;;4963211;28;20039;-79
2022/01/18 13:36:22;;;;;;;15.48;6.88;;;5.70;99.90;;;;;;4962765;28;20097;-80
2022/01/18 13:38:49;;;;;;;16.48;7.32;;;5.80;99.90;;;;;;4990205;28;20447;-81
2022/01/18 13:41:16;;;;;;;19.15;7.60;;;6.10;99.90;;;;;;4969457;28;20015;-83
2022/01/18 13:43:53;;;;;;;15.93;6.68;;;6.40;99.90;;;;;;4991038;28;20011;-82
2022/01/18 13:46:26;;;;;;;11.95;6.63;;;6.60;99.90;;;;;;4958162;29;20027;-80
2022/01/18 13:49:09;;;;;;;13.52;5.40;;;7.70;99.90;;;;;;4953293;29;20031;-80
2022/01/18 13:51:37;;;;;;;17.05;5.90;;;8.70;99.90;;;;;;4954332;29;20050;-81
2022/01/18 13:54:08;;;;;;;12.07;6.60;;;9.10;99.90;;;;;;4952553;29;20051;-80
2022/01/18 13:56:47;;;;;;;10.00;6.00;;;8.70;99.90;;;;;;4960338;29;20428;-82
2022/01/18 13:59:12;;;;;;;9.35;5.38;;;8.20;99.90;;;;;;4959070;29;20015;-82
2022/01/18 14:01:41;;;;;;;10.18;5.63;;;7.90;99.90;;;;;;4937942;29;20038;-79
2022/01/18 14:04:18;;;;;;;12.32;5.40;;;7.40;99.90;;;;;;4961340;28;20038;-80
2022/01/18 14:06:44;;;;;;;8.57;4.20;;;6.80;99.90;;;;;;4952767;28;20050;-80
2022/01/18 14:09:12;;;;;;;9.73;4.88;;;6.30;99.90;;;;;;4970808;28;20111;-78
2022/01/18 14:11:47;;;;;;;7.03;3.95;;;6.20;99.90;;;;;;4971003;28;20038;-81